Blodgett, OR

3:09 AM PDT on August 21, 2014 (GMT -0700)
APRSWXNET Eddyville/Claine Hill OR US | Change Station
CLOSE
Current Station
Personal Weather Station
Location: Blodgett, OR
Elevation: 1209 ft
Nearby Weather Stations

Elev 1209 ft 44.61 °N, 123.65 °W | Updated 35 minutes ago

Clear
Clear
56.0 °F
Feels Like 56.0 °F
N
0.0
Wind Variable Wind from North
Gusts 0.0 mph

Today
High -- | Low -- °F
--% Chance of Precip.
Yesterday
High -- | Low -- °F
Precip. -- in
6:24 AM 8:10 PM
Waning Crescent, 15% visible
Pressure 30.04 in
Visibility 10.0 miles
Clouds Clear
Dew Point 55.0 °F
Humidity 95%
Rainfall -999.00 in
Snow Depth Not available.
UV 0 out of 12
Pollen 3.90 out of 12
Air Quality Not available.
Flu Activity Not available.
METAR KCVO 210955Z 30008KT 10SM CLR 12/10 A3004 RMK AO1

More Conditions Fewer Conditions

Pressure 30.04 in
Visibility 10.0 miles
Clouds Clear
Dew Point 55.0 °F
Humidity 95%
Rainfall -999.00 in
Snow Depth Not available.
UV 0 out of 12
Pollen 3.90 out of 12
Air Quality Not available.
Flu Activity Not available.
METAR KCVO 210955Z 30008KT 10SM CLR 12/10 A3004 RMK AO1

More Conditions Fewer Conditions

10-Day Weather Forecast

Almanac

Astronomy

Aug. 21, 2014 Rise Set
Actual Time 6:24 AM PDT 8:10 PM PDT
Civil Twilight 5:53 AM PDT 8:41 PM PDT
Nautical Twilight 5:15 AM PDT 9:18 PM PDT
Astronomical Twilight 4:34 AM PDT 9:59 PM PDT
Moon 2:55 AM PDT 5:46 PM PDT
Length of Visible Light 14h 47m
Length of Day
13h 45m
Tomorrow will be 2m 52s shorter.
Waning Crescent, 15% of the Moon is Illuminated
Today
Waning Crescent
Aug 25
New
Sep 2
First Quarter
Sep 8
Full
Sep 15
Last Quarter

Today's Extremes

State Highs State Lows

Community

WunderPhotos

Upload Photos

1,745,871 photos uploaded!

Nearby

Snow Depth

Station Depth Elevation
Seine Creek 0 in 2000 ft
Daly Lake 0 in 3600 ft
Holland Meadows 0 in 4900 ft
Santiam Junction 0 in 3750 ft
Hogg Pass 0 in 4760 ft

Earthquake Activity

City Distance Mag. Time & Date
No recent earthquake activity has been reported nearby.
Minimum magnitude displayed is 2.5.

Coastal Water Temperatures

Place Temperature
South Beach, OR 53.1 °F
Charleston, OR 53.1 °F

Nearby Weather Stations